Time;durP1;ratioP1;P1;durP2;ratioP2;P2;SDS_P1;SDS_P2;PMS_P1;PMS_P2;Temp;Humidity;BMP_temperature;BMP_pressure;BME280_temperature;BME280_humidity;BME280_pressure;Samples;Min_cycle;Max_cycle;Signal;HPM_P1;HPM_P2
2023/01/07 00:01:20;;;;;;;3.67;2.73;;;;;;;8.64;100.00;100991.81;5042943;28;20202;-82
2023/01/07 00:03:47;;;;;;;5.20;2.50;;;;;;;8.70;100.00;100983.56;5043608;28;20206;-83
2023/01/07 00:06:16;;;;;;;3.03;2.73;;;;;;;8.79;100.00;100968.94;5045828;28;20241;-83
2023/01/07 00:08:44;;;;;;;3.00;2.60;;;;;;;8.81;100.00;100959.97;5040552;28;20621;-82
2023/01/07 00:11:15;;;;;;;2.40;2.20;;;;;;;8.85;100.00;100972.16;5048316;28;20201;-82
2023/01/07 00:13:42;;;;;;;3.37;2.33;;;;;;;8.90;100.00;100962.16;5037545;28;20632;-83
2023/01/07 00:16:12;;;;;;;2.60;2.10;;;;;;;8.91;100.00;100963.03;5042662;28;20217;-81
2023/01/07 00:18:39;;;;;;;2.10;1.90;;;;;;;8.95;100.00;100959.28;5042567;28;20237;-82
2023/01/07 00:21:08;;;;;;;2.37;1.90;;;;;;;8.98;100.00;100959.09;5045074;28;20205;-82
2023/01/07 00:23:35;;;;;;;2.20;2.00;;;;;;;9.03;100.00;100951.75;5041878;28;20214;-82
2023/01/07 00:26:05;;;;;;;2.23;2.03;;;;;;;9.03;100.00;100954.41;5046867;28;20233;-83
2023/01/07 00:28:34;;;;;;;2.43;1.60;;;;;;;9.03;100.00;100957.94;5048172;28;20228;-84
2023/01/07 00:31:01;;;;;;;2.23;1.80;;;;;;;9.06;100.00;100959.56;5047114;28;20209;-84
2023/01/07 00:33:29;;;;;;;2.20;2.00;;;;;;;9.05;100.00;100965.81;5043480;28;20202;-84
2023/01/07 00:35:59;;;;;;;1.70;1.50;;;;;;;9.07;100.00;100963.09;5046772;28;20194;-83
2023/01/07 00:38:26;;;;;;;1.40;1.30;;;;;;;9.08;100.00;100959.50;5040008;28;20703;-82
2023/01/07 00:41:00;;;;;;;1.43;1.20;;;;;;;9.07;100.00;100963.94;5046608;28;20209;-83
2023/01/07 00:43:26;;;;;;;1.30;1.20;;;;;;;9.07;100.00;100955.97;5046326;28;20205;-82
2023/01/07 00:45:53;;;;;;;1.70;1.10;;;;;;;9.10;100.00;100952.31;5041073;28;20846;-83
2023/01/07 00:48:22;;;;;;;2.27;1.30;;;;;;;9.10;100.00;100954.97;5045578;28;20213;-82
2023/01/07 00:50:51;;;;;;;1.07;0.97;;;;;;;9.13;100.00;100963.63;5041543;28;20687;-83
2023/01/07 00:53:18;;;;;;;3.00;1.00;;;;;;;9.14;100.00;100956.50;5041782;28;20212;-80
2023/01/07 00:55:45;;;;;;;1.30;1.20;;;;;;;9.14;100.00;100957.34;5039956;28;20201;-80
2023/01/07 00:58:14;;;;;;;1.00;0.90;;;;;;;9.16;100.00;100960.78;5045966;28;20221;-81
2023/01/07 01:00:41;;;;;;;1.67;0.87;;;;;;;9.18;100.00;100971.34;5046034;28;20256;-81
2023/01/07 01:03:08;;;;;;;1.23;0.90;;;;;;;9.23;100.00;100971.97;5045210;28;20206;-81
2023/01/07 01:05:35;;;;;;;2.00;1.00;;;;;;;9.26;100.00;100963.84;5039915;28;20205;-81
2023/01/07 01:08:02;;;;;;;2.03;1.20;;;;;;;9.29;100.00;100969.00;5045265;28;20224;-81
2023/01/07 01:10:29;;;;;;;2.93;1.07;;;;;;;9.28;100.00;100985.88;5035632;28;20589;-81
2023/01/07 01:12:55;;;;;;;1.27;1.07;;;;;;;9.27;100.00;100970.88;5040672;28;20205;-81
2023/01/07 01:15:22;;;;;;;1.97;1.07;;;;;;;9.28;100.00;100972.59;5042559;28;20198;-81
2023/01/07 01:17:51;;;;;;;1.93;1.40;;;;;;;9.29;100.00;100963.69;5040864;28;20210;-82
2023/01/07 01:20:18;;;;;;;4.37;2.80;;;;;;;9.28;100.00;100962.81;5042209;28;20605;-81
2023/01/07 01:22:45;;;;;;;2.77;1.70;;;;;;;9.27;100.00;100957.59;5037575;28;20210;-83
2023/01/07 01:25:13;;;;;;;6.30;3.30;;;;;;;9.28;100.00;100952.19;5035621;28;20199;-83
2023/01/07 01:27:40;;;;;;;5.17;2.67;;;;;;;9.29;100.00;100956.56;5042329;28;20232;-83
2023/01/07 01:30:08;;;;;;;2.37;1.50;;;;;;;9.29;100.00;100964.53;5037945;28;20221;-80
2023/01/07 01:32:34;;;;;;;1.27;1.13;;;;;;;9.31;100.00;100956.50;5041864;28;20206;-83
2023/01/07 01:35:01;;;;;;;0.87;0.73;;;;;;;9.31;100.00;100957.34;5049123;28;20209;-83
2023/01/07 01:37:27;;;;;;;0.70;0.70;;;;;;;9.31;100.00;100962.66;5048723;28;20205;-81
2023/01/07 01:39:53;;;;;;;1.23;1.00;;;;;;;9.30;100.00;100954.78;5042471;28;20221;-82
2023/01/07 01:42:24;;;;;;;1.10;0.83;;;;;;;9.27;100.00;100958.44;5042629;28;20202;-81
2023/01/07 01:44:52;;;;;;;1.30;1.10;;;;;;;9.26;100.00;100961.19;5042643;28;20225;-82
2023/01/07 01:47:24;;;;;;;0.77;0.77;;;;;;;9.26;100.00;100953.22;5047785;28;20236;-80
2023/01/07 01:49:59;;;;;;;1.10;1.00;;;;;;;9.24;100.00;100942.66;5041557;28;20226;-81
2023/01/07 01:52:30;;;;;;;1.90;1.00;;;;;;;9.25;100.00;100944.38;5044651;28;20200;-80
2023/01/07 01:55:00;;;;;;;1.00;0.93;;;;;;;9.25;100.00;100936.41;5049953;28;20584;-80
2023/01/07 01:57:32;;;;;;;1.40;1.30;;;;;;;9.25;100.00;100938.19;5041430;28;20216;-81
2023/01/07 01:59:59;;;;;;;1.30;1.20;;;;;;;9.25;100.00;100938.19;5040409;28;20237;-81
2023/01/07 02:02:32;;;;;;;1.70;1.03;;;;;;;9.25;100.00;100924.91;5051986;28;20263;-81
2023/01/07 02:04:58;;;;;;;1.87;0.90;;;;;;;9.24;100.00;100945.31;5052093;28;20209;-80
2023/01/07 02:07:25;;;;;;;0.90;0.80;;;;;;;9.22;100.00;100955.16;5051680;28;20627;-82
2023/01/07 02:10:00;;;;;;;1.00;0.90;;;;;;;9.22;100.00;100949.00;5053858;28;20221;-81
2023/01/07 02:12:41;;;;;;;0.90;0.90;;;;;;;9.23;100.00;100942.72;5041620;28;20412;-82
2023/01/07 02:15:11;;;;;;;1.47;1.13;;;;;;;9.22;100.00;100946.34;5049100;28;20656;-80
2023/01/07 02:18:04;;;;;;;1.20;0.97;;;;;;;9.20;100.00;100943.75;5053569;28;20559;-82
2023/01/07 02:20:52;;;;;;;0.80;0.80;;;;;;;9.23;100.00;100951.56;5048311;28;20230;-81
2023/01/07 02:23:52;;;;;;;0.90;0.90;;;;;;;9.24;100.00;100947.97;5050711;28;20206;-81
2023/01/07 02:26:55;;;;;;;0.80;0.80;;;;;;;9.21;100.00;100945.47;5053129;28;20708;-82
2023/01/07 02:30:03;;;;;;;1.00;1.00;;;;;;;9.23;100.00;100938.28;5029656;28;20223;-81
2023/01/07 02:32:43;;;;;;;0.70;0.70;;;;;;;9.23;100.00;100945.41;5040622;28;20197;-83
2023/01/07 02:35:19;;;;;;;1.70;1.03;;;;;;;9.23;100.00;100946.25;5049999;28;20198;-82
2023/01/07 02:37:56;;;;;;;1.50;1.00;;;;;;;9.24;100.00;100942.66;5050973;28;20216;-82
2023/01/07 02:40:27;;;;;;;1.20;1.10;;;;;;;9.26;100.00;100937.25;5047972;28;20613;-82
2023/01/07 02:43:02;;;;;;;1.60;1.00;;;;;;;9.26;100.00;100946.09;5047421;28;20230;-82
2023/01/07 02:45:31;;;;;;;0.80;0.80;;;;;;;9.30;100.00;100937.03;5049330;28;20223;-81
2023/01/07 02:48:03;;;;;;;1.50;0.90;;;;;;;9.33;100.00;100934.19;5049011;28;20229;-83
2023/01/07 02:50:30;;;;;;;1.70;1.20;;;;;;;9.34;100.00;100930.56;5047235;28;20232;-83
2023/01/07 02:52:56;;;;;;;2.10;1.20;;;;;;;9.37;100.00;100926.91;5045852;28;20665;-83
2023/01/07 02:55:33;;;;;;;1.77;1.37;;;;;;;9.35;100.00;100926.97;5050298;28;20212;-83
2023/01/07 02:58:18;;;;;;;1.10;0.97;;;;;;;9.37;100.00;100929.56;5041393;28;20209;-82
2023/01/07 03:01:25;;;;;;;1.30;1.20;;;;;;;9.39;100.00;100919.72;5043765;28;20237;-83
2023/01/07 03:04:20;;;;;;;2.77;1.40;;;;;;;9.39;100.00;100922.38;5048986;28;20205;-82
2023/01/07 03:07:05;;;;;;;2.50;1.37;;;;;;;9.40;100.00;100927.59;5052882;28;20225;-83
2023/01/07 03:09:41;;;;;;;2.20;1.20;;;;;;;9.40;100.00;100916.09;5044727;28;20218;-83
2023/01/07 03:12:16;;;;;;;1.53;1.17;;;;;;;9.39;100.00;100909.06;5050119;28;20205;-82
2023/01/07 03:14:48;;;;;;;1.50;1.10;;;;;;;9.38;100.00;100904.69;5052005;28;20201;-83
2023/01/07 03:17:20;;;;;;;1.80;1.10;;;;;;;9.36;100.00;100907.44;5047533;28;20780;-83
2023/01/07 03:19:53;;;;;;;2.03;1.10;;;;;;;9.32;100.00;100894.38;5049859;28;20232;-82
2023/01/07 03:22:22;;;;;;;1.27;1.17;;;;;;;9.34;100.00;100906.66;5045545;28;20194;-83
2023/01/07 03:24:52;;;;;;;1.30;1.00;;;;;;;9.31;100.00;100906.00;5037894;28;20213;-81
2023/01/07 03:27:22;;;;;;;1.50;1.10;;;;;;;9.31;100.00;100898.88;5047315;28;20244;-82
2023/01/07 03:29:49;;;;;;;2.07;1.40;;;;;;;9.32;100.00;100899.69;5045285;28;20214;-81
2023/01/07 03:32:18;;;;;;;1.10;1.00;;;;;;;9.30;100.00;100902.47;5047864;28;20214;-82
2023/01/07 03:34:45;;;;;;;1.10;0.90;;;;;;;9.26;100.00;100892.09;5041127;28;20205;-82
2023/01/07 03:37:16;;;;;;;2.97;1.50;;;;;;;9.25;100.00;100888.56;5044052;28;20655;-84
2023/01/07 03:39:45;;;;;;;1.60;1.10;;;;;;;9.26;100.00;100884.13;5039830;28;20222;-82
2023/01/07 03:44:58;;;;;;;1.30;1.07;;;;;;;9.23;100.00;100889.59;5048208;28;20216;-82
2023/01/07 03:47:26;;;;;;;2.70;1.00;;;;;;;9.25;100.00;100885.91;5052209;28;20221;-82
2023/01/07 03:49:53;;;;;;;1.70;0.90;;;;;;;9.29;100.00;100881.28;5044755;28;20233;-83
2023/01/07 03:52:21;;;;;;;2.43;1.00;;;;;;;9.28;100.00;100887.53;5037437;28;20202;-83
2023/01/07 03:54:47;;;;;;;1.40;1.00;;;;;;;9.28;100.00;100877.78;5051098;28;20207;-83
2023/01/07 03:57:14;;;;;;;1.70;1.03;;;;;;;9.33;100.00;100893.44;5048148;28;20692;-82
2023/01/07 03:59:40;;;;;;;0.80;0.80;;;;;;;9.38;100.00;100878.13;5038462;28;20806;-82
2023/01/07 04:02:07;;;;;;;1.47;1.10;;;;;;;9.39;100.00;100870.06;5041009;28;20206;-82
2023/01/07 04:04:33;;;;;;;0.77;0.63;;;;;;;9.44;100.00;100872.47;5041310;28;20202;-81
2023/01/07 04:06:59;;;;;;;2.10;1.13;;;;;;;9.44;100.00;100867.16;5038138;28;20210;-81
2023/01/07 04:09:27;;;;;;;1.80;1.10;;;;;;;9.44;100.00;100874.28;5048259;28;20241;-82
2023/01/07 04:11:54;;;;;;;2.30;1.10;;;;;;;9.42;100.00;100860.19;5056435;28;20205;-83
2023/01/07 04:14:20;;;;;;;3.30;1.53;;;;;;;9.45;100.00;100862.69;5047743;28;20628;-82
2023/01/07 04:16:49;;;;;;;3.03;1.20;;;;;;;9.42;100.00;100855.75;5048539;28;20564;-83
2023/01/07 04:19:16;;;;;;;1.57;1.07;;;;;;;9.41;100.00;100843.41;5046168;28;20569;-83
2023/01/07 04:21:43;;;;;;;1.80;1.20;;;;;;;9.40;100.00;100842.53;5047990;28;20202;-82
2023/01/07 04:24:09;;;;;;;2.00;1.20;;;;;;;9.38;100.00;100838.25;5047001;28;20218;-81
2023/01/07 04:26:37;;;;;;;2.10;1.00;;;;;;;9.39;100.00;100837.31;5045173;28;20229;-80
2023/01/07 04:29:04;;;;;;;0.90;0.70;;;;;;;9.40;100.00;100844.34;5046715;28;20240;-81
2023/01/07 04:31:30;;;;;;;0.87;0.70;;;;;;;9.38;100.00;100840.91;5049483;28;20208;-81
2023/01/07 04:33:57;;;;;;;0.70;0.70;;;;;;;9.36;100.00;100837.47;5048451;28;20197;-83
2023/01/07 04:36:23;;;;;;;0.70;0.67;;;;;;;9.35;100.00;100843.72;5045053;28;20216;-82
2023/01/07 04:38:50;;;;;;;0.87;0.77;;;;;;;9.34;100.00;100837.53;5043344;28;20222;-83
2023/01/07 04:41:16;;;;;;;0.60;0.57;;;;;;;9.32;100.00;100834.13;5040198;28;20206;-83
2023/01/07 04:43:44;;;;;;;0.63;0.60;;;;;;;9.32;100.00;100833.25;5050059;28;20216;-81
2023/01/07 04:46:11;;;;;;;0.70;0.63;;;;;;;9.31;100.00;100828.91;5053256;28;20209;-83
2023/01/07 04:48:37;;;;;;;0.60;0.60;;;;;;;9.28;100.00;100824.63;5048545;28;20225;-81
2023/01/07 04:51:04;;;;;;;1.10;1.00;;;;;;;9.26;100.00;100831.81;5044339;28;20202;-81
2023/01/07 04:53:30;;;;;;;2.60;1.00;;;;;;;9.24;100.00;100827.53;5052512;28;20214;-80
2023/01/07 04:55:57;;;;;;;2.00;0.90;;;;;;;9.20;100.00;100832.13;5046909;28;20198;-80
2023/01/07 04:58:23;;;;;;;0.80;0.80;;;;;;;9.17;100.00;100821.69;5051301;28;20204;-81
2023/01/07 05:00:52;;;;;;;1.10;1.00;;;;;;;9.15;100.00;100822.69;5041537;28;20208;-81
2023/01/07 05:03:19;;;;;;;0.90;0.90;;;;;;;9.13;100.00;100816.63;5042539;28;20205;-82
2023/01/07 05:05:45;;;;;;;1.17;0.97;;;;;;;9.09;100.00;100817.75;5047833;28;20210;-82
2023/01/07 05:08:12;;;;;;;0.63;0.63;;;;;;;9.06;100.00;100813.44;5044184;28;20324;-82
2023/01/07 05:10:38;;;;;;;1.10;1.00;;;;;;;9.02;100.00;100812.75;5037782;28;20212;-80
2023/01/07 05:13:05;;;;;;;1.33;1.10;;;;;;;9.02;100.00;100815.41;5042363;28;20209;-79
2023/01/07 05:15:31;;;;;;;0.90;0.90;;;;;;;9.01;100.00;100815.47;5041062;28;20213;-80
2023/01/07 05:17:59;;;;;;;1.50;0.90;;;;;;;8.98;100.00;100820.97;5043734;28;20221;-80
2023/01/07 05:20:25;;;;;;;1.30;0.90;;;;;;;8.96;100.00;100818.38;5042044;28;20230;-81
2023/01/07 05:22:52;;;;;;;1.20;1.10;;;;;;;8.95;100.00;100814.03;5044311;28;20319;-80
2023/01/07 05:25:18;;;;;;;1.43;1.13;;;;;;;8.94;100.00;100816.78;5054072;28;20216;-82
2023/01/07 05:27:45;;;;;;;1.37;1.27;;;;;;;8.93;100.00;100820.38;5047713;28;20213;-82
2023/01/07 05:30:11;;;;;;;1.10;0.83;;;;;;;8.92;100.00;100814.19;5049900;28;20228;-81
2023/01/07 05:32:38;;;;;;;0.93;0.93;;;;;;;8.91;100.00;100816.94;5046930;28;20206;-82
2023/01/07 05:35:07;;;;;;;2.40;1.20;;;;;;;8.91;100.00;100819.59;5049684;28;20209;-81
2023/01/07 05:37:33;;;;;;;1.47;1.37;;;;;;;8.90;100.00;100817.88;5050185;28;20218;-80
2023/01/07 05:40:00;;;;;;;1.80;1.20;;;;;;;8.89;100.00;100824.97;5048635;28;20283;-79
2023/01/07 05:42:26;;;;;;;1.40;1.20;;;;;;;8.89;100.00;100824.97;5045357;28;20217;-80
2023/01/07 05:44:53;;;;;;;1.37;1.27;;;;;;;8.87;100.00;100826.84;5053730;28;20204;-80
2023/01/07 05:47:19;;;;;;;1.53;1.30;;;;;;;8.87;100.00;100832.16;5043357;28;20210;-80
2023/01/07 05:49:46;;;;;;;1.30;1.17;;;;;;;8.87;100.00;100828.66;5050624;28;20232;-80
2023/01/07 05:52:13;;;;;;;1.27;1.17;;;;;;;8.86;100.00;100833.09;5048560;28;20209;-80
2023/01/07 05:54:40;;;;;;;1.97;1.30;;;;;;;8.86;100.00;100842.88;5049354;28;20209;-80
2023/01/07 05:57:06;;;;;;;1.47;1.10;;;;;;;8.84;100.00;100834.97;5048332;28;20293;-80
2023/01/07 05:59:33;;;;;;;1.10;1.00;;;;;;;8.83;100.00;100835.91;5044440;28;20237;-79
2023/01/07 06:02:00;;;;;;;1.27;1.00;;;;;;;8.80;100.00;100828.09;5051241;28;20205;-80
2023/01/07 06:04:26;;;;;;;1.33;0.97;;;;;;;8.79;100.00;100837.00;5052967;28;20701;-80
2023/01/07 06:06:53;;;;;;;2.97;1.23;;;;;;;8.76;100.00;100831.03;5048448;28;20579;-80
2023/01/07 06:09:21;;;;;;;1.30;1.20;;;;;;;8.75;100.00;100831.97;5049019;28;20718;-81
2023/01/07 06:11:48;;;;;;;1.90;1.33;;;;;;;8.73;100.00;100832.06;5044980;28;20201;-81
2023/01/07 06:14:14;;;;;;;1.57;1.40;;;;;;;8.72;100.00;100826.81;5052418;28;20213;-82
2023/01/07 06:16:41;;;;;;;1.50;1.37;;;;;;;8.69;100.00;100830.50;5053327;28;20202;-82
2023/01/07 06:19:07;;;;;;;1.30;1.20;;;;;;;8.68;100.00;100831.44;5053186;28;20225;-80
2023/01/07 06:21:34;;;;;;;1.50;1.40;;;;;;;8.67;100.00;100821.75;5052306;28;20202;-80
2023/01/07 06:24:00;;;;;;;1.70;1.43;;;;;;;8.67;100.00;100824.41;5050622;28;20214;-79
2023/01/07 06:26:28;;;;;;;2.00;1.33;;;;;;;8.67;100.00;100822.59;5053283;28;20209;-81
2023/01/07 06:28:54;;;;;;;4.53;2.17;;;;;;;8.66;100.00;100822.69;5049092;28;20230;-80
2023/01/07 06:31:21;;;;;;;2.00;1.53;;;;;;;8.67;100.00;100825.25;5043400;28;20562;-80
2023/01/07 06:33:47;;;;;;;1.83;1.73;;;;;;;8.66;100.00;100828.00;5046356;28;20673;-80
2023/01/07 06:36:14;;;;;;;1.50;1.40;;;;;;;8.64;100.00;100830.72;5052794;28;20206;-81
2023/01/07 06:38:41;;;;;;;1.60;1.47;;;;;;;8.62;100.00;100815.81;5049355;28;20682;-80
2023/01/07 06:41:07;;;;;;;1.60;1.50;;;;;;;8.59;100.00;100816.84;5047295;28;20263;-80
2023/01/07 06:43:35;;;;;;;2.10;1.70;;;;;;;8.56;100.00;100822.31;5050252;28;20224;-80
2023/01/07 06:46:01;;;;;;;2.37;2.13;;;;;;;8.53;100.00;100817.16;5044816;28;20210;-79
2023/01/07 06:48:28;;;;;;;1.90;1.57;;;;;;;8.52;100.00;100811.94;5051249;28;20706;-80
2023/01/07 06:50:54;;;;;;;2.40;2.20;;;;;;;8.48;100.00;100810.38;5051946;28;20892;-80
2023/01/07 06:53:21;;;;;;;2.23;1.80;;;;;;;8.46;100.00;100812.25;5049675;28;20566;-81
2023/01/07 06:55:48;;;;;;;2.07;1.77;;;;;;;8.45;100.00;100807.88;5050449;28;20707;-81
2023/01/07 06:58:15;;;;;;;2.90;2.33;;;;;;;8.42;100.00;100800.91;5050953;28;20232;-82
2023/01/07 07:00:43;;;;;;;2.40;2.00;;;;;;;8.41;100.00;100801.88;5051263;28;20726;-82
2023/01/07 07:03:10;;;;;;;2.30;2.10;;;;;;;8.39;100.00;100795.78;5049931;28;20301;-82
2023/01/07 07:05:36;;;;;;;2.20;2.00;;;;;;;8.39;100.00;100793.16;5052174;28;20850;-82
2023/01/07 07:08:03;;;;;;;2.83;2.40;;;;;;;8.38;100.00;100795.88;5052117;28;20225;-82
2023/01/07 07:10:30;;;;;;;2.57;2.37;;;;;;;8.38;100.00;100794.06;5052160;28;20249;-82
2023/01/07 07:12:57;;;;;;;2.97;2.63;;;;;;;8.39;100.00;100790.50;5051340;28;20216;-82
2023/01/07 07:15:23;;;;;;;2.87;2.43;;;;;;;8.40;100.00;100789.56;5043961;28;20577;-81
2023/01/07 07:17:51;;;;;;;3.20;2.60;;;;;;;8.40;100.00;100788.69;5048890;28;20204;-82
2023/01/07 07:20:17;;;;;;;3.17;2.83;;;;;;;8.40;100.00;100789.56;5058038;28;20327;-81
2023/01/07 07:22:45;;;;;;;3.77;2.73;;;;;;;8.40;100.00;100786.91;5042316;28;20214;-81
2023/01/07 07:25:12;;;;;;;3.40;3.00;;;;;;;8.40;100.00;100796.66;5051522;28;20221;-81
2023/01/07 07:27:38;;;;;;;2.70;2.50;;;;;;;8.39;100.00;100795.78;5047449;28;20292;-82
2023/01/07 07:30:06;;;;;;;4.30;3.90;;;;;;;8.40;100.00;100799.31;5047059;28;20233;-82
2023/01/07 07:32:33;;;;;;;3.50;3.20;;;;;;;8.39;100.00;100793.16;5049969;28;20256;-81
2023/01/07 07:35:01;;;;;;;4.30;3.90;;;;;;;8.40;100.00;100796.66;5045031;28;20206;-82
2023/01/07 07:37:27;;;;;;;3.50;3.20;;;;;;;8.39;100.00;100792.28;5050262;28;20208;-81
2023/01/07 07:39:54;;;;;;;4.10;3.70;;;;;;;8.39;100.00;100793.16;5049730;28;20226;-83
2023/01/07 07:42:20;;;;;;;4.67;3.40;;;;;;;8.37;100.00;100791.50;5049272;28;20205;-83
2023/01/07 07:44:47;;;;;;;4.83;4.23;;;;;;;8.39;100.00;100786.97;5049101;28;20205;-83
2023/01/07 07:47:13;;;;;;;4.70;4.10;;;;;;;8.39;100.00;100782.53;5042326;28;20205;-83
2023/01/07 07:49:40;;;;;;;3.13;2.83;;;;;;;8.38;100.00;100783.47;5047621;28;20252;-83
2023/01/07 07:52:07;;;;;;;3.67;3.07;;;;;;;8.38;100.00;100780.81;5050340;28;20225;-82
2023/01/07 07:54:34;;;;;;;4.67;2.83;;;;;;;8.41;100.00;100778.00;5044840;28;20221;-80
2023/01/07 07:57:02;;;;;;;3.30;2.80;;;;;;;8.42;100.00;100769.06;5039730;28;20687;-81
2023/01/07 07:59:29;;;;;;;4.03;3.63;;;;;;;8.45;100.00;100776.88;5044127;28;20213;-81
2023/01/07 08:01:55;;;;;;;2.87;2.50;;;;;;;8.45;100.00;100770.72;5035647;28;20206;-82
2023/01/07 08:04:22;;;;;;;2.93;2.63;;;;;;;8.50;100.00;100771.34;5036978;28;20201;-83
2023/01/07 08:06:48;;;;;;;3.13;2.57;;;;;;;8.51;100.00;100768.59;5043654;28;20209;-82
2023/01/07 08:09:16;;;;;;;3.13;2.70;;;;;;;8.52;100.00;100766.81;5037870;28;20238;-82
2023/01/07 08:11:42;;;;;;;3.47;2.57;;;;;;;8.54;100.00;100767.59;5035502;28;20209;-81
2023/01/07 08:14:09;;;;;;;3.00;2.80;;;;;;;8.57;100.00;100770.94;5037766;28;20212;-82
2023/01/07 08:16:36;;;;;;;3.40;2.70;;;;;;;8.59;100.00;100770.88;5044024;28;20210;-82
2023/01/07 08:19:03;;;;;;;4.60;3.23;;;;;;;8.61;100.00;100769.81;5047643;28;20225;-81
2023/01/07 08:21:29;;;;;;;6.47;4.30;;;;;;;8.64;100.00;100766.16;5049423;28;20293;-82
2023/01/07 08:23:55;;;;;;;8.03;4.60;;;;;;;8.67;100.00;100764.19;5042151;28;20206;-82
2023/01/07 08:26:23;;;;;;;10.40;5.10;;;;;;;8.69;100.00;100757.00;5049422;28;20217;-83
2023/01/07 08:28:50;;;;;;;6.67;4.03;;;;;;;8.74;100.00;100759.41;5047596;28;20612;-82
2023/01/07 08:31:16;;;;;;;4.63;3.40;;;;;;;8.75;100.00;100758.47;5048496;28;20542;-84
2023/01/07 08:33:43;;;;;;;5.77;4.03;;;;;;;8.78;100.00;100760.13;5047520;28;20573;-83
2023/01/07 08:36:10;;;;;;;4.23;3.37;;;;;;;8.78;100.00;100760.94;5041982;28;20305;-84
2023/01/07 08:38:36;;;;;;;3.87;3.00;;;;;;;8.80;100.00;100759.06;5045143;28;20236;-81
2023/01/07 08:41:03;;;;;;;9.40;5.40;;;;;;;8.82;100.00;100761.63;5050805;28;20210;-82
2023/01/07 08:43:32;;;;;;;8.77;5.87;;;;;;;8.82;100.00;100764.28;5042262;28;20209;-81
2023/01/07 08:45:58;;;;;;;9.97;5.73;;;;;;;8.83;100.00;100769.53;5043606;28;20297;-82
2023/01/07 08:48:25;;;;;;;4.17;3.10;;;;;;;8.84;100.00;100763.28;5042150;28;20205;-83
2023/01/07 08:50:53;;;;;;;3.20;2.47;;;;;;;8.86;100.00;100757.88;5047516;28;20277;-82
2023/01/07 08:53:20;;;;;;;2.10;1.90;;;;;;;8.89;100.00;100763.03;5045576;28;21433;-82
2023/01/07 08:55:47;;;;;;;3.10;1.83;;;;;;;8.93;100.00;100764.59;5046521;28;20203;-82
2023/01/07 08:58:13;;;;;;;2.43;2.13;;;;;;;8.96;100.00;100764.41;5049354;28;20221;-82
2023/01/07 09:00:41;;;;;;;2.50;1.90;;;;;;;9.01;100.00;100754.38;5043906;28;20212;-82
2023/01/07 09:03:08;;;;;;;2.93;2.63;;;;;;;9.05;100.00;100764.75;5047482;28;20220;-81
2023/01/07 09:05:34;;;;;;;3.43;2.80;;;;;;;9.11;100.00;100765.38;5042728;28;20576;-81
2023/01/07 09:08:02;;;;;;;3.40;2.43;;;;;;;9.16;100.00;100760.63;5044199;28;20209;-82
2023/01/07 09:10:29;;;;;;;2.47;2.13;;;;;;;9.18;100.00;100759.63;5040771;28;20237;-82
2023/01/07 09:12:56;;;;;;;4.67;2.80;;;;;;;9.24;100.00;100758.44;5045740;28;20213;-83
2023/01/07 09:15:22;;;;;;;2.47;2.27;;;;;;;9.28;100.00;100763.50;5043679;28;20201;-82
2023/01/07 09:17:50;;;;;;;6.87;4.63;;;;;;;9.34;100.00;100767.59;5046218;28;20206;-82
2023/01/07 09:20:17;;;;;;;2.70;1.93;;;;;;;9.36;100.00;100763.91;5043667;28;20233;-82
2023/01/07 09:22:44;;;;;;;4.27;3.73;;;;;;;9.42;99.61;100753.88;5045954;28;20292;-84
2023/01/07 09:25:10;;;;;;;4.20;2.73;;;;;;;9.49;99.36;100757.91;5043761;28;20214;-82
2023/01/07 09:27:37;;;;;;;3.40;2.60;;;;;;;9.51;99.07;100763.97;5041888;28;20201;-81
2023/01/07 09:30:04;;;;;;;4.90;3.33;;;;;;;9.55;98.60;100762.84;5044805;28;20237;-81
2023/01/07 09:32:30;;;;;;;2.70;2.20;;;;;;;9.58;97.92;100766.19;5044571;28;20194;-82
2023/01/07 09:34:58;;;;;;;2.43;2.10;;;;;;;9.60;97.96;100764.31;5037095;28;20217;-81
2023/01/07 09:37:25;;;;;;;3.80;2.97;;;;;;;9.67;97.03;100757.69;5036759;28;20221;-81
2023/01/07 09:39:51;;;;;;;2.90;2.40;;;;;;;9.68;96.37;100747.91;5034056;28;20236;-82
2023/01/07 09:42:26;;;;;;;2.50;2.20;;;;;;;9.69;95.88;100755.78;5038857;28;21068;-84
2023/01/07 09:45:04;;;;;;;2.17;1.93;;;;;;;9.72;95.82;100749.44;5041011;28;20224;-80
2023/01/07 09:47:35;;;;;;;2.63;2.40;;;;;;;9.75;95.11;100755.44;5042558;28;20557;-82
2023/01/07 09:50:14;;;;;;;2.03;1.83;;;;;;;9.79;94.65;100749.94;5045889;28;20300;-80
2023/01/07 09:52:45;;;;;;;3.20;2.30;;;;;;;9.81;93.98;100753.38;5038641;28;20212;-82
2023/01/07 09:55:20;;;;;;;2.67;2.20;;;;;;;9.82;93.75;100745.31;5044665;28;20232;-82
2023/01/07 09:57:47;;;;;;;2.30;2.10;;;;;;;9.88;92.89;100744.06;5042556;28;20837;-83
2023/01/07 10:00:16;;;;;;;5.10;2.80;;;;;;;9.88;93.36;100744.06;5041401;28;20235;-81
2023/01/07 10:02:53;;;;;;;2.70;2.33;;;;;;;9.91;92.69;100741.25;5043078;28;20210;-82
2023/01/07 10:05:34;;;;;;;3.77;2.20;;;;;;;9.90;92.74;100743.03;5037769;28;20203;-80
2023/01/07 10:08:07;;;;;;;4.27;2.50;;;;;;;9.93;92.98;100752.66;5044962;28;20208;-81
2023/01/07 10:10:42;;;;;;;2.60;2.40;;;;;;;9.94;92.63;100751.72;5049299;28;20233;-82
2023/01/07 10:13:25;;;;;;;4.10;2.80;;;;;;;9.97;92.22;100754.19;5049056;28;20753;-83
2023/01/07 10:16:00;;;;;;;2.90;2.20;;;;;;;9.97;92.26;100740.88;5044661;28;20201;-82
2023/01/07 10:18:43;;;;;;;2.60;1.90;;;;;;;9.97;91.78;100736.44;5051396;28;20200;-84
2023/01/07 10:21:20;;;;;;;2.00;1.70;;;;;;;9.97;91.91;100731.09;5045306;28;20206;-81
2023/01/07 10:23:53;;;;;;;2.13;1.93;;;;;;;10.01;91.49;100723.81;5042208;28;20216;-83
2023/01/07 10:26:30;;;;;;;2.03;1.50;;;;;;;10.03;91.28;100730.72;5046847;28;20739;-81
2023/01/07 10:29:01;;;;;;;1.70;1.60;;;;;;;10.03;91.04;100725.41;5049445;28;20232;-81
2023/01/07 10:31:29;;;;;;;2.30;1.17;;;;;;;10.03;90.75;100719.25;5047288;28;20198;-82
2023/01/07 10:33:57;;;;;;;2.77;1.10;;;;;;;10.05;90.90;100712.84;5044588;28;20205;-83
2023/01/07 10:36:27;;;;;;;1.53;1.43;;;;;;;10.08;89.94;100703.84;5044162;28;20198;-83
2023/01/07 10:39:02;;;;;;;0.83;0.80;;;;;;;10.14;89.02;100697.31;5048376;28;20221;-82
2023/01/07 10:41:39;;;;;;;1.87;1.37;;;;;;;10.16;89.24;100701.59;5049278;28;20201;-81
2023/01/07 10:44:47;;;;;;;1.37;1.20;;;;;;;10.21;88.59;100698.69;5043459;28;20202;-82
2023/01/07 10:47:25;;;;;;;1.63;0.70;;;;;;;10.22;88.67;100698.56;5036936;28;20209;-81
2023/01/07 10:50:16;;;;;;;1.50;0.80;;;;;;;10.23;87.59;100694.94;5043653;28;20234;-82
2023/01/07 10:52:56;;;;;;;0.70;0.70;;;;;;;10.24;87.60;100693.16;5040974;28;20209;-80
2023/01/07 10:55:49;;;;;;;1.20;0.83;;;;;;;10.30;86.62;100688.31;5051434;28;20201;-83
2023/01/07 10:58:15;;;;;;;1.30;0.83;;;;;;;10.32;86.35;100686.41;5043720;28;20205;-82
2023/01/07 11:00:42;;;;;;;1.13;0.70;;;;;;;10.36;85.94;100682.63;5048463;28;20284;-82
2023/01/07 11:03:18;;;;;;;0.70;0.70;;;;;;;10.40;85.57;100673.47;5046398;28;20214;-84
2023/01/07 11:05:46;;;;;;;1.23;0.77;;;;;;;10.43;85.28;100657.31;5043514;28;20294;-83
2023/01/07 11:08:29;;;;;;;1.43;0.50;;;;;;;10.48;84.50;100654.38;5045663;28;20220;-83
2023/01/07 11:10:55;;;;;;;2.10;1.13;;;;;;;10.52;84.08;100655.03;5043894;28;20210;-82
2023/01/07 11:13:26;;;;;;;5.07;3.10;;;;;;;10.57;83.30;100648.44;5050252;28;20221;-83
2023/01/07 11:15:56;;;;;;;3.63;2.20;;;;;;;10.62;82.32;100648.16;5049733;28;20193;-84
2023/01/07 11:18:29;;;;;;;1.17;0.77;;;;;;;10.67;81.98;100651.41;5055810;28;20194;-81
2023/01/07 11:20:57;;;;;;;1.60;1.13;;;;;;;10.70;81.65;100648.53;5045405;28;20229;-82
2023/01/07 11:23:30;;;;;;;1.67;0.70;;;;;;;10.70;80.40;100637.88;5036530;28;20214;-80
2023/01/07 11:26:08;;;;;;;0.83;0.80;;;;;;;10.73;79.96;100637.69;5046326;28;20210;-82
2023/01/07 11:28:36;;;;;;;1.63;0.80;;;;;;;10.76;79.56;100632.16;5044449;28;20780;-82
2023/01/07 11:31:03;;;;;;;1.30;0.57;;;;;;;10.79;78.92;100629.28;5049046;28;20244;-82
2023/01/07 11:33:37;;;;;;;2.00;0.80;;;;;;;10.76;78.51;100638.34;5047712;28;20562;-81
2023/01/07 11:36:06;;;;;;;2.10;0.70;;;;;;;10.75;78.30;100639.28;5042110;28;20194;-81
2023/01/07 11:38:37;;;;;;;0.77;0.50;;;;;;;10.74;78.51;100626.09;5046754;28;20704;-82
2023/01/07 11:41:06;;;;;;;0.60;0.50;;;;;;;10.75;78.45;100628.63;5046999;28;20586;-82